sensor_id;sensor_type;location;lat;lon;timestamp;P1;durP1;ratioP1;P2;durP2;ratioP2
51194;SDS011;37259;49.972;19.850;2023-07-22T00:00:28;11.3;;;7.2;;
51194;SDS011;37259;49.972;19.850;2023-07-22T00:01:28;11.3;;;7.2;;
51194;SDS011;37259;49.972;19.850;2023-07-22T00:02:27;11.3;;;7.2;;
51194;SDS011;37259;49.972;19.850;2023-07-22T00:03:27;11.3;;;7.2;;
51194;SDS011;37259;49.972;19.850;2023-07-22T00:04:27;11.3;;;7.2;;
51194;SDS011;37259;49.972;19.850;2023-07-22T00:05:27;11.3;;;7.2;;
51194;SDS011;37259;49.972;19.850;2023-07-22T00:06:27;11.3;;;7.2;;
51194;SDS011;37259;49.972;19.850;2023-07-22T00:07:27;11.3;;;7.2;;
51194;SDS011;37259;49.972;19.850;2023-07-22T00:08:27;11.3;;;7.2;;
51194;SDS011;37259;49.972;19.850;2023-07-22T00:09:27;11.3;;;7.2;;
51194;SDS011;37259;49.972;19.850;2023-07-22T00:10:26;11.3;;;7.2;;
51194;SDS011;37259;49.972;19.850;2023-07-22T00:11:26;11.3;;;7.2;;
51194;SDS011;37259;49.972;19.850;2023-07-22T00:12:27;11.3;;;7.2;;
51194;SDS011;37259;49.972;19.850;2023-07-22T00:13:27;11.3;;;7.2;;
51194;SDS011;37259;49.972;19.850;2023-07-22T00:14:26;11.3;;;7.2;;
51194;SDS011;37259;49.972;19.850;2023-07-22T00:15:30;11.3;;;7.2;;
51194;SDS011;37259;49.972;19.850;2023-07-22T00:16:27;11.3;;;7.2;;
51194;SDS011;37259;49.972;19.850;2023-07-22T00:17:27;9.1;;;5.8;;
51194;SDS011;37259;49.972;19.850;2023-07-22T00:18:27;9.1;;;5.8;;
51194;SDS011;37259;49.972;19.850;2023-07-22T00:19:27;9.1;;;5.8;;
51194;SDS011;37259;49.972;19.850;2023-07-22T00:20:27;9.1;;;5.8;;
51194;SDS011;37259;49.972;19.850;2023-07-22T00:21:27;9.1;;;5.8;;
51194;SDS011;37259;49.972;19.850;2023-07-22T00:22:28;9.1;;;5.8;;
51194;SDS011;37259;49.972;19.850;2023-07-22T00:23:27;9.1;;;5.8;;
51194;SDS011;37259;49.972;19.850;2023-07-22T00:24:27;9.1;;;5.8;;
51194;SDS011;37259;49.972;19.850;2023-07-22T00:25:27;9.1;;;5.8;;
51194;SDS011;37259;49.972;19.850;2023-07-22T00:26:27;9.1;;;5.8;;
51194;SDS011;37259;49.972;19.850;2023-07-22T00:27:27;9.1;;;5.8;;
51194;SDS011;37259;49.972;19.850;2023-07-22T00:28:27;9.1;;;5.8;;
51194;SDS011;37259;49.972;19.850;2023-07-22T00:29:27;9.1;;;5.8;;
51194;SDS011;37259;49.972;19.850;2023-07-22T00:30:32;9.1;;;5.8;;
51194;SDS011;37259;49.972;19.850;2023-07-22T00:31:28;9.1;;;5.8;;
51194;SDS011;37259;49.972;19.850;2023-07-22T00:32:27;9.1;;;5.8;;
51194;SDS011;37259;49.972;19.850;2023-07-22T00:33:27;9.1;;;5.8;;
51194;SDS011;37259;49.972;19.850;2023-07-22T00:34:27;9.1;;;5.8;;
51194;SDS011;37259;49.972;19.850;2023-07-22T00:35:27;9.1;;;5.8;;
51194;SDS011;37259;49.972;19.850;2023-07-22T00:36:27;9.1;;;5.8;;
51194;SDS011;37259;49.972;19.850;2023-07-22T00:37:27;9.1;;;5.8;;
51194;SDS011;37259;49.972;19.850;2023-07-22T00:38:27;9.1;;;5.8;;
51194;SDS011;37259;49.972;19.850;2023-07-22T00:39:27;9.1;;;5.8;;
51194;SDS011;37259;49.972;19.850;2023-07-22T00:40:27;9.1;;;5.8;;
51194;SDS011;37259;49.972;19.850;2023-07-22T00:41:27;9.1;;;5.8;;
51194;SDS011;37259;49.972;19.850;2023-07-22T00:42:28;9.1;;;5.8;;
51194;SDS011;37259;49.972;19.850;2023-07-22T00:43:27;9.1;;;5.8;;
51194;SDS011;37259;49.972;19.850;2023-07-22T00:44:27;9.1;;;5.8;;
51194;SDS011;37259;49.972;19.850;2023-07-22T00:45:33;9.1;;;5.8;;
51194;SDS011;37259;49.972;19.850;2023-07-22T00:46:28;9.1;;;5.8;;
51194;SDS011;37259;49.972;19.850;2023-07-22T00:47:28;10;;;5.2;;
51194;SDS011;37259;49.972;19.850;2023-07-22T00:48:28;10;;;5.2;;
51194;SDS011;37259;49.972;19.850;2023-07-22T00:49:28;10;;;5.2;;
51194;SDS011;37259;49.972;19.850;2023-07-22T00:50:28;10;;;5.2;;
51194;SDS011;37259;49.972;19.850;2023-07-22T00:51:28;10;;;5.2;;
51194;SDS011;37259;49.972;19.850;2023-07-22T00:52:28;10;;;5.2;;
51194;SDS011;37259;49.972;19.850;2023-07-22T00:53:28;10;;;5.2;;
51194;SDS011;37259;49.972;19.850;2023-07-22T00:54:28;10;;;5.2;;
51194;SDS011;37259;49.972;19.850;2023-07-22T00:55:28;10;;;5.2;;
51194;SDS011;37259;49.972;19.850;2023-07-22T00:56:28;10;;;5.2;;
51194;SDS011;37259;49.972;19.850;2023-07-22T00:57:28;10;;;5.2;;
51194;SDS011;37259;49.972;19.850;2023-07-22T00:58:28;10;;;5.2;;
51194;SDS011;37259;49.972;19.850;2023-07-22T00:59:28;10;;;5.2;;
51194;SDS011;37259;49.972;19.850;2023-07-22T01:00:28;10;;;5.2;;
51194;SDS011;37259;49.972;19.850;2023-07-22T01:01:28;10;;;5.2;;
51194;SDS011;37259;49.972;19.850;2023-07-22T01:02:28;10;;;5.2;;
51194;SDS011;37259;49.972;19.850;2023-07-22T01:03:28;10;;;5.2;;
51194;SDS011;37259;49.972;19.850;2023-07-22T01:04:28;10;;;5.2;;
51194;SDS011;37259;49.972;19.850;2023-07-22T01:05:28;10;;;5.2;;
51194;SDS011;37259;49.972;19.850;2023-07-22T01:06:28;10;;;5.2;;
51194;SDS011;37259;49.972;19.850;2023-07-22T01:07:28;10;;;5.2;;
51194;SDS011;37259;49.972;19.850;2023-07-22T01:08:28;10;;;5.2;;
51194;SDS011;37259;49.972;19.850;2023-07-22T01:09:33;10;;;5.2;;
51194;SDS011;37259;49.972;19.850;2023-07-22T01:10:28;10;;;5.2;;
51194;SDS011;37259;49.972;19.850;2023-07-22T01:11:28;10;;;5.2;;
51194;SDS011;37259;49.972;19.850;2023-07-22T01:12:28;10;;;5.2;;
51194;SDS011;37259;49.972;19.850;2023-07-22T01:13:28;10;;;5.2;;
51194;SDS011;37259;49.972;19.850;2023-07-22T01:14:28;10;;;5.2;;
51194;SDS011;37259;49.972;19.850;2023-07-22T01:15:28;10;;;5.2;;
51194;SDS011;37259;49.972;19.850;2023-07-22T01:16:28;10;;;5.2;;
51194;SDS011;37259;49.972;19.850;2023-07-22T01:17:28;8.1;;;5.9;;
51194;SDS011;37259;49.972;19.850;2023-07-22T01:18:28;8.1;;;5.9;;
51194;SDS011;37259;49.972;19.850;2023-07-22T01:19:28;8.1;;;5.9;;
51194;SDS011;37259;49.972;19.850;2023-07-22T01:20:28;8.1;;;5.9;;
51194;SDS011;37259;49.972;19.850;2023-07-22T01:21:28;8.1;;;5.9;;
51194;SDS011;37259;49.972;19.850;2023-07-22T01:22:28;8.1;;;5.9;;
51194;SDS011;37259;49.972;19.850;2023-07-22T01:23:28;8.1;;;5.9;;
51194;SDS011;37259;49.972;19.850;2023-07-22T01:24:28;8.1;;;5.9;;
51194;SDS011;37259;49.972;19.850;2023-07-22T01:25:28;8.1;;;5.9;;
51194;SDS011;37259;49.972;19.850;2023-07-22T01:26:28;8.1;;;5.9;;
51194;SDS011;37259;49.972;19.850;2023-07-22T01:27:28;8.1;;;5.9;;
51194;SDS011;37259;49.972;19.850;2023-07-22T01:28:28;8.1;;;5.9;;
51194;SDS011;37259;49.972;19.850;2023-07-22T01:29:28;8.1;;;5.9;;
51194;SDS011;37259;49.972;19.850;2023-07-22T01:30:33;8.1;;;5.9;;
51194;SDS011;37259;49.972;19.850;2023-07-22T01:31:28;8.1;;;5.9;;
51194;SDS011;37259;49.972;19.850;2023-07-22T01:32:28;8.1;;;5.9;;
51194;SDS011;37259;49.972;19.850;2023-07-22T01:33:28;8.1;;;5.9;;
51194;SDS011;37259;49.972;19.850;2023-07-22T01:34:28;8.1;;;5.9;;
51194;SDS011;37259;49.972;19.850;2023-07-22T01:35:28;8.1;;;5.9;;
51194;SDS011;37259;49.972;19.850;2023-07-22T01:36:28;8.1;;;5.9;;
51194;SDS011;37259;49.972;19.850;2023-07-22T01:37:28;8.1;;;5.9;;
51194;SDS011;37259;49.972;19.850;2023-07-22T01:38:28;8.1;;;5.9;;
51194;SDS011;37259;49.972;19.850;2023-07-22T01:39:28;8.1;;;5.9;;
51194;SDS011;37259;49.972;19.850;2023-07-22T01:40:28;8.1;;;5.9;;
51194;SDS011;37259;49.972;19.850;2023-07-22T01:41:28;8.1;;;5.9;;
51194;SDS011;37259;49.972;19.850;2023-07-22T01:42:28;8.1;;;5.9;;
51194;SDS011;37259;49.972;19.850;2023-07-22T01:43:28;8.1;;;5.9;;
51194;SDS011;37259;49.972;19.850;2023-07-22T01:44:28;8.1;;;5.9;;
51194;SDS011;37259;49.972;19.850;2023-07-22T01:45:28;8.1;;;5.9;;
51194;SDS011;37259;49.972;19.850;2023-07-22T01:46:28;8.1;;;5.9;;
51194;SDS011;37259;49.972;19.850;2023-07-22T01:47:28;9.8;;;5.8;;
51194;SDS011;37259;49.972;19.850;2023-07-22T01:48:28;9.8;;;5.8;;
51194;SDS011;37259;49.972;19.850;2023-07-22T01:49:28;9.8;;;5.8;;
51194;SDS011;37259;49.972;19.850;2023-07-22T01:50:28;9.8;;;5.8;;
51194;SDS011;37259;49.972;19.850;2023-07-22T01:51:28;9.8;;;5.8;;
51194;SDS011;37259;49.972;19.850;2023-07-22T01:52:28;9.8;;;5.8;;
51194;SDS011;37259;49.972;19.850;2023-07-22T01:53:28;9.8;;;5.8;;
51194;SDS011;37259;49.972;19.850;2023-07-22T01:54:28;9.8;;;5.8;;
51194;SDS011;37259;49.972;19.850;2023-07-22T01:55:28;9.8;;;5.8;;
51194;SDS011;37259;49.972;19.850;2023-07-22T01:56:28;9.8;;;5.8;;
51194;SDS011;37259;49.972;19.850;2023-07-22T01:57:28;9.8;;;5.8;;
51194;SDS011;37259;49.972;19.850;2023-07-22T01:58:28;9.8;;;5.8;;
51194;SDS011;37259;49.972;19.850;2023-07-22T01:59:28;9.8;;;5.8;;
51194;SDS011;37259;49.972;19.850;2023-07-22T02:00:28;9.8;;;5.8;;
51194;SDS011;37259;49.972;19.850;2023-07-22T02:01:29;9.8;;;5.8;;
51194;SDS011;37259;49.972;19.850;2023-07-22T02:02:28;9.8;;;5.8;;
51194;SDS011;37259;49.972;19.850;2023-07-22T02:03:28;9.8;;;5.8;;
51194;SDS011;37259;49.972;19.850;2023-07-22T02:04:28;9.8;;;5.8;;
51194;SDS011;37259;49.972;19.850;2023-07-22T02:05:28;9.8;;;5.8;;
51194;SDS011;37259;49.972;19.850;2023-07-22T02:06:28;9.8;;;5.8;;
51194;SDS011;37259;49.972;19.850;2023-07-22T02:07:28;9.8;;;5.8;;
51194;SDS011;37259;49.972;19.850;2023-07-22T02:08:28;9.8;;;5.8;;
51194;SDS011;37259;49.972;19.850;2023-07-22T02:09:28;9.8;;;5.8;;
51194;SDS011;37259;49.972;19.850;2023-07-22T02:10:28;9.8;;;5.8;;
51194;SDS011;37259;49.972;19.850;2023-07-22T02:11:28;9.8;;;5.8;;
51194;SDS011;37259;49.972;19.850;2023-07-22T02:12:28;9.8;;;5.8;;
51194;SDS011;37259;49.972;19.850;2023-07-22T02:13:28;9.8;;;5.8;;
51194;SDS011;37259;49.972;19.850;2023-07-22T02:14:28;9.8;;;5.8;;
51194;SDS011;37259;49.972;19.850;2023-07-22T02:15:28;9.8;;;5.8;;
51194;SDS011;37259;49.972;19.850;2023-07-22T02:16:31;9.8;;;5.8;;
51194;SDS011;37259;49.972;19.850;2023-07-22T02:17:28;5.9;;;4.4;;
51194;SDS011;37259;49.972;19.850;2023-07-22T02:18:28;5.9;;;4.4;;
51194;SDS011;37259;49.972;19.850;2023-07-22T02:19:28;5.9;;;4.4;;
51194;SDS011;37259;49.972;19.850;2023-07-22T02:20:28;5.9;;;4.4;;
51194;SDS011;37259;49.972;19.850;2023-07-22T02:21:28;5.9;;;4.4;;
51194;SDS011;37259;49.972;19.850;2023-07-22T02:22:28;5.9;;;4.4;;
51194;SDS011;37259;49.972;19.850;2023-07-22T02:23:28;5.9;;;4.4;;
51194;SDS011;37259;49.972;19.850;2023-07-22T02:24:28;5.9;;;4.4;;
51194;SDS011;37259;49.972;19.850;2023-07-22T02:25:28;5.9;;;4.4;;
51194;SDS011;37259;49.972;19.850;2023-07-22T02:26:28;5.9;;;4.4;;
51194;SDS011;37259;49.972;19.850;2023-07-22T02:27:28;5.9;;;4.4;;
51194;SDS011;37259;49.972;19.850;2023-07-22T02:28:28;5.9;;;4.4;;
51194;SDS011;37259;49.972;19.850;2023-07-22T02:29:28;5.9;;;4.4;;
51194;SDS011;37259;49.972;19.850;2023-07-22T02:30:28;5.9;;;4.4;;
51194;SDS011;37259;49.972;19.850;2023-07-22T02:31:28;5.9;;;4.4;;
51194;SDS011;37259;49.972;19.850;2023-07-22T02:32:28;5.9;;;4.4;;
51194;SDS011;37259;49.972;19.850;2023-07-22T02:33:28;5.9;;;4.4;;
51194;SDS011;37259;49.972;19.850;2023-07-22T02:34:28;5.9;;;4.4;;
51194;SDS011;37259;49.972;19.850;2023-07-22T02:35:28;5.9;;;4.4;;
51194;SDS011;37259;49.972;19.850;2023-07-22T02:36:28;5.9;;;4.4;;
51194;SDS011;37259;49.972;19.850;2023-07-22T02:37:28;5.9;;;4.4;;
51194;SDS011;37259;49.972;19.850;2023-07-22T02:38:28;5.9;;;4.4;;
51194;SDS011;37259;49.972;19.850;2023-07-22T02:39:28;5.9;;;4.4;;
51194;SDS011;37259;49.972;19.850;2023-07-22T02:40:29;5.9;;;4.4;;
51194;SDS011;37259;49.972;19.850;2023-07-22T02:41:28;5.9;;;4.4;;
51194;SDS011;37259;49.972;19.850;2023-07-22T02:42:28;5.9;;;4.4;;
51194;SDS011;37259;49.972;19.850;2023-07-22T02:43:28;5.9;;;4.4;;
51194;SDS011;37259;49.972;19.850;2023-07-22T02:44:28;5.9;;;4.4;;
51194;SDS011;37259;49.972;19.850;2023-07-22T02:45:28;5.9;;;4.4;;
51194;SDS011;37259;49.972;19.850;2023-07-22T02:46:29;5.9;;;4.4;;
51194;SDS011;37259;49.972;19.850;2023-07-22T02:47:28;6;;;4;;
51194;SDS011;37259;49.972;19.850;2023-07-22T02:48:28;6;;;4;;
51194;SDS011;37259;49.972;19.850;2023-07-22T02:49:28;6;;;4;;
51194;SDS011;37259;49.972;19.850;2023-07-22T02:50:31;6;;;4;;
51194;SDS011;37259;49.972;19.850;2023-07-22T02:51:28;6;;;4;;
51194;SDS011;37259;49.972;19.850;2023-07-22T02:52:28;6;;;4;;
51194;SDS011;37259;49.972;19.850;2023-07-22T02:53:28;6;;;4;;
51194;SDS011;37259;49.972;19.850;2023-07-22T02:54:28;6;;;4;;
51194;SDS011;37259;49.972;19.850;2023-07-22T02:55:28;6;;;4;;
51194;SDS011;37259;49.972;19.850;2023-07-22T02:56:28;6;;;4;;
51194;SDS011;37259;49.972;19.850;2023-07-22T02:57:28;6;;;4;;
51194;SDS011;37259;49.972;19.850;2023-07-22T02:58:28;6;;;4;;
51194;SDS011;37259;49.972;19.850;2023-07-22T02:59:28;6;;;4;;
51194;SDS011;37259;49.972;19.850;2023-07-22T03:00:28;6;;;4;;
51194;SDS011;37259;49.972;19.850;2023-07-22T03:01:28;6;;;4;;
51194;SDS011;37259;49.972;19.850;2023-07-22T03:02:28;6;;;4;;
51194;SDS011;37259;49.972;19.850;2023-07-22T03:03:28;6;;;4;;
51194;SDS011;37259;49.972;19.850;2023-07-22T03:04:28;6;;;4;;
51194;SDS011;37259;49.972;19.850;2023-07-22T03:05:28;6;;;4;;
51194;SDS011;37259;49.972;19.850;2023-07-22T03:06:28;6;;;4;;
51194;SDS011;37259;49.972;19.850;2023-07-22T03:07:28;6;;;4;;
51194;SDS011;37259;49.972;19.850;2023-07-22T03:08:28;6;;;4;;
51194;SDS011;37259;49.972;19.850;2023-07-22T03:09:28;6;;;4;;
51194;SDS011;37259;49.972;19.850;2023-07-22T03:10:28;6;;;4;;
51194;SDS011;37259;49.972;19.850;2023-07-22T03:11:28;6;;;4;;
51194;SDS011;37259;49.972;19.850;2023-07-22T03:12:28;6;;;4;;
51194;SDS011;37259;49.972;19.850;2023-07-22T03:13:28;6;;;4;;
51194;SDS011;37259;49.972;19.850;2023-07-22T03:14:28;6;;;4;;
51194;SDS011;37259;49.972;19.850;2023-07-22T03:15:28;6;;;4;;
51194;SDS011;37259;49.972;19.850;2023-07-22T03:16:28;6;;;4;;
51194;SDS011;37259;49.972;19.850;2023-07-22T03:17:28;6.7;;;4;;
51194;SDS011;37259;49.972;19.850;2023-07-22T03:18:28;6.7;;;4;;
51194;SDS011;37259;49.972;19.850;2023-07-22T03:19:28;6.7;;;4;;
51194;SDS011;37259;49.972;19.850;2023-07-22T03:20:28;6.7;;;4;;
51194;SDS011;37259;49.972;19.850;2023-07-22T03:21:28;6.7;;;4;;
51194;SDS011;37259;49.972;19.850;2023-07-22T03:22:28;6.7;;;4;;
51194;SDS011;37259;49.972;19.850;2023-07-22T03:23:28;6.7;;;4;;
51194;SDS011;37259;49.972;19.850;2023-07-22T03:24:28;6.7;;;4;;
51194;SDS011;37259;49.972;19.850;2023-07-22T03:25:28;6.7;;;4;;
51194;SDS011;37259;49.972;19.850;2023-07-22T03:26:28;6.7;;;4;;
51194;SDS011;37259;49.972;19.850;2023-07-22T03:27:28;6.7;;;4;;
51194;SDS011;37259;49.972;19.850;2023-07-22T03:28:28;6.7;;;4;;
51194;SDS011;37259;49.972;19.850;2023-07-22T03:29:28;6.7;;;4;;
51194;SDS011;37259;49.972;19.850;2023-07-22T03:30:28;6.7;;;4;;
51194;SDS011;37259;49.972;19.850;2023-07-22T03:31:28;6.7;;;4;;
51194;SDS011;37259;49.972;19.850;2023-07-22T03:32:28;6.7;;;4;;
51194;SDS011;37259;49.972;19.850;2023-07-22T03:33:28;6.7;;;4;;
51194;SDS011;37259;49.972;19.850;2023-07-22T03:34:28;6.7;;;4;;
51194;SDS011;37259;49.972;19.850;2023-07-22T03:35:28;6.7;;;4;;
51194;SDS011;37259;49.972;19.850;2023-07-22T03:36:28;6.7;;;4;;
51194;SDS011;37259;49.972;19.850;2023-07-22T03:37:28;6.7;;;4;;
51194;SDS011;37259;49.972;19.850;2023-07-22T03:38:28;6.7;;;4;;
51194;SDS011;37259;49.972;19.850;2023-07-22T03:39:28;6.7;;;4;;
51194;SDS011;37259;49.972;19.850;2023-07-22T03:40:28;6.7;;;4;;
51194;SDS011;37259;49.972;19.850;2023-07-22T03:41:28;6.7;;;4;;
51194;SDS011;37259;49.972;19.850;2023-07-22T03:42:28;6.7;;;4;;
51194;SDS011;37259;49.972;19.850;2023-07-22T03:43:28;6.7;;;4;;
51194;SDS011;37259;49.972;19.850;2023-07-22T03:44:28;6.7;;;4;;
51194;SDS011;37259;49.972;19.850;2023-07-22T03:45:28;6.7;;;4;;
51194;SDS011;37259;49.972;19.850;2023-07-22T03:46:28;6.7;;;4;;
51194;SDS011;37259;49.972;19.850;2023-07-22T03:47:28;6.9;;;3.6;;
51194;SDS011;37259;49.972;19.850;2023-07-22T03:48:28;6.9;;;3.6;;
51194;SDS011;37259;49.972;19.850;2023-07-22T03:49:28;6.9;;;3.6;;
51194;SDS011;37259;49.972;19.850;2023-07-22T03:50:28;6.9;;;3.6;;
51194;SDS011;37259;49.972;19.850;2023-07-22T03:51:28;6.9;;;3.6;;
51194;SDS011;37259;49.972;19.850;2023-07-22T03:52:28;6.9;;;3.6;;
51194;SDS011;37259;49.972;19.850;2023-07-22T03:53:28;6.9;;;3.6;;
51194;SDS011;37259;49.972;19.850;2023-07-22T03:54:28;6.9;;;3.6;;
51194;SDS011;37259;49.972;19.850;2023-07-22T03:55:28;6.9;;;3.6;;
51194;SDS011;37259;49.972;19.850;2023-07-22T03:56:28;6.9;;;3.6;;
51194;SDS011;37259;49.972;19.850;2023-07-22T03:57:28;6.9;;;3.6;;
51194;SDS011;37259;49.972;19.850;2023-07-22T03:58:28;6.9;;;3.6;;
51194;SDS011;37259;49.972;19.850;2023-07-22T03:59:28;6.9;;;3.6;;
51194;SDS011;37259;49.972;19.850;2023-07-22T04:00:28;6.9;;;3.6;;
51194;SDS011;37259;49.972;19.850;2023-07-22T04:01:28;6.9;;;3.6;;
51194;SDS011;37259;49.972;19.850;2023-07-22T04:02:28;6.9;;;3.6;;
51194;SDS011;37259;49.972;19.850;2023-07-22T04:03:28;6.9;;;3.6;;
51194;SDS011;37259;49.972;19.850;2023-07-22T04:04:28;6.9;;;3.6;;
51194;SDS011;37259;49.972;19.850;2023-07-22T04:05:28;6.9;;;3.6;;
51194;SDS011;37259;49.972;19.850;2023-07-22T04:06:28;6.9;;;3.6;;
51194;SDS011;37259;49.972;19.850;2023-07-22T04:07:28;6.9;;;3.6;;
51194;SDS011;37259;49.972;19.850;2023-07-22T04:08:28;6.9;;;3.6;;
51194;SDS011;37259;49.972;19.850;2023-07-22T04:09:28;6.9;;;3.6;;
51194;SDS011;37259;49.972;19.850;2023-07-22T04:10:28;6.9;;;3.6;;
51194;SDS011;37259;49.972;19.850;2023-07-22T04:11:28;6.9;;;3.6;;
51194;SDS011;37259;49.972;19.850;2023-07-22T04:12:28;6.9;;;3.6;;
51194;SDS011;37259;49.972;19.850;2023-07-22T04:13:28;6.9;;;3.6;;
51194;SDS011;37259;49.972;19.850;2023-07-22T04:14:28;6.9;;;3.6;;
51194;SDS011;37259;49.972;19.850;2023-07-22T04:15:29;6.9;;;3.6;;
51194;SDS011;37259;49.972;19.850;2023-07-22T04:16:28;6.9;;;3.6;;
51194;SDS011;37259;49.972;19.850;2023-07-22T04:17:28;8.2;;;3.5;;
51194;SDS011;37259;49.972;19.850;2023-07-22T04:18:28;8.2;;;3.5;;
51194;SDS011;37259;49.972;19.850;2023-07-22T04:19:28;8.2;;;3.5;;
51194;SDS011;37259;49.972;19.850;2023-07-22T04:20:28;8.2;;;3.5;;
51194;SDS011;37259;49.972;19.850;2023-07-22T04:21:28;8.2;;;3.5;;
51194;SDS011;37259;49.972;19.850;2023-07-22T04:22:28;8.2;;;3.5;;
51194;SDS011;37259;49.972;19.850;2023-07-22T04:23:28;8.2;;;3.5;;
51194;SDS011;37259;49.972;19.850;2023-07-22T04:24:28;8.2;;;3.5;;
51194;SDS011;37259;49.972;19.850;2023-07-22T04:25:28;8.2;;;3.5;;
51194;SDS011;37259;49.972;19.850;2023-07-22T04:26:28;8.2;;;3.5;;
51194;SDS011;37259;49.972;19.850;2023-07-22T04:27:28;8.2;;;3.5;;
51194;SDS011;37259;49.972;19.850;2023-07-22T04:28:28;8.2;;;3.5;;
51194;SDS011;37259;49.972;19.850;2023-07-22T04:29:28;8.2;;;3.5;;
51194;SDS011;37259;49.972;19.850;2023-07-22T04:30:28;8.2;;;3.5;;
51194;SDS011;37259;49.972;19.850;2023-07-22T04:31:28;8.2;;;3.5;;
51194;SDS011;37259;49.972;19.850;2023-07-22T04:32:28;8.2;;;3.5;;
51194;SDS011;37259;49.972;19.850;2023-07-22T04:33:28;8.2;;;3.5;;
51194;SDS011;37259;49.972;19.850;2023-07-22T04:34:28;8.2;;;3.5;;
51194;SDS011;37259;49.972;19.850;2023-07-22T04:35:29;8.2;;;3.5;;
51194;SDS011;37259;49.972;19.850;2023-07-22T04:36:28;8.2;;;3.5;;
51194;SDS011;37259;49.972;19.850;2023-07-22T04:37:28;8.2;;;3.5;;
51194;SDS011;37259;49.972;19.850;2023-07-22T04:38:28;8.2;;;3.5;;
51194;SDS011;37259;49.972;19.850;2023-07-22T04:39:28;8.2;;;3.5;;
51194;SDS011;37259;49.972;19.850;2023-07-22T04:40:28;8.2;;;3.5;;
51194;SDS011;37259;49.972;19.850;2023-07-22T04:41:28;8.2;;;3.5;;
51194;SDS011;37259;49.972;19.850;2023-07-22T04:42:28;8.2;;;3.5;;
51194;SDS011;37259;49.972;19.850;2023-07-22T04:43:28;8.2;;;3.5;;
51194;SDS011;37259;49.972;19.850;2023-07-22T04:44:28;8.2;;;3.5;;
51194;SDS011;37259;49.972;19.850;2023-07-22T04:45:28;8.2;;;3.5;;
51194;SDS011;37259;49.972;19.850;2023-07-22T04:46:28;8.2;;;3.5;;
51194;SDS011;37259;49.972;19.850;2023-07-22T04:47:28;7.2;;;4.5;;
51194;SDS011;37259;49.972;19.850;2023-07-22T04:48:29;7.2;;;4.5;;
51194;SDS011;37259;49.972;19.850;2023-07-22T04:49:28;7.2;;;4.5;;
51194;SDS011;37259;49.972;19.850;2023-07-22T04:50:28;7.2;;;4.5;;
51194;SDS011;37259;49.972;19.850;2023-07-22T04:51:28;7.2;;;4.5;;
51194;SDS011;37259;49.972;19.850;2023-07-22T04:52:28;7.2;;;4.5;;
51194;SDS011;37259;49.972;19.850;2023-07-22T04:53:28;7.2;;;4.5;;
51194;SDS011;37259;49.972;19.850;2023-07-22T04:54:28;7.2;;;4.5;;
51194;SDS011;37259;49.972;19.850;2023-07-22T04:55:28;7.2;;;4.5;;
51194;SDS011;37259;49.972;19.850;2023-07-22T04:56:28;7.2;;;4.5;;
51194;SDS011;37259;49.972;19.850;2023-07-22T04:57:28;7.2;;;4.5;;
51194;SDS011;37259;49.972;19.850;2023-07-22T04:58:28;7.2;;;4.5;;
51194;SDS011;37259;49.972;19.850;2023-07-22T04:59:28;7.2;;;4.5;;
51194;SDS011;37259;49.972;19.850;2023-07-22T05:00:28;7.2;;;4.5;;
51194;SDS011;37259;49.972;19.850;2023-07-22T05:01:28;7.2;;;4.5;;
51194;SDS011;37259;49.972;19.850;2023-07-22T05:02:28;7.2;;;4.5;;
51194;SDS011;37259;49.972;19.850;2023-07-22T05:03:28;7.2;;;4.5;;
51194;SDS011;37259;49.972;19.850;2023-07-22T05:04:28;7.2;;;4.5;;
51194;SDS011;37259;49.972;19.850;2023-07-22T05:05:28;7.2;;;4.5;;
51194;SDS011;37259;49.972;19.850;2023-07-22T05:06:28;7.2;;;4.5;;
51194;SDS011;37259;49.972;19.850;2023-07-22T05:07:28;7.2;;;4.5;;
51194;SDS011;37259;49.972;19.850;2023-07-22T05:08:28;7.2;;;4.5;;
51194;SDS011;37259;49.972;19.850;2023-07-22T05:09:28;7.2;;;4.5;;
51194;SDS011;37259;49.972;19.850;2023-07-22T05:10:28;7.2;;;4.5;;
51194;SDS011;37259;49.972;19.850;2023-07-22T05:11:28;7.2;;;4.5;;
51194;SDS011;37259;49.972;19.850;2023-07-22T05:12:28;7.2;;;4.5;;
51194;SDS011;37259;49.972;19.850;2023-07-22T05:13:28;7.2;;;4.5;;
51194;SDS011;37259;49.972;19.850;2023-07-22T05:14:28;7.2;;;4.5;;
51194;SDS011;37259;49.972;19.850;2023-07-22T05:15:28;7.2;;;4.5;;
51194;SDS011;37259;49.972;19.850;2023-07-22T05:16:28;7.2;;;4.5;;
51194;SDS011;37259;49.972;19.850;2023-07-22T05:17:28;14.5;;;6.6;;
51194;SDS011;37259;49.972;19.850;2023-07-22T05:18:28;14.5;;;6.6;;
51194;SDS011;37259;49.972;19.850;2023-07-22T05:19:28;14.5;;;6.6;;
51194;SDS011;37259;49.972;19.850;2023-07-22T05:20:28;14.5;;;6.6;;
51194;SDS011;37259;49.972;19.850;2023-07-22T05:21:28;14.5;;;6.6;;
51194;SDS011;37259;49.972;19.850;2023-07-22T05:22:28;14.5;;;6.6;;
51194;SDS011;37259;49.972;19.850;2023-07-22T05:23:28;14.5;;;6.6;;
51194;SDS011;37259;49.972;19.850;2023-07-22T05:24:28;14.5;;;6.6;;
51194;SDS011;37259;49.972;19.850;2023-07-22T05:25:28;14.5;;;6.6;;
51194;SDS011;37259;49.972;19.850;2023-07-22T05:26:28;14.5;;;6.6;;
51194;SDS011;37259;49.972;19.850;2023-07-22T05:27:28;14.5;;;6.6;;
51194;SDS011;37259;49.972;19.850;2023-07-22T05:28:28;14.5;;;6.6;;
51194;SDS011;37259;49.972;19.850;2023-07-22T05:29:28;14.5;;;6.6;;
51194;SDS011;37259;49.972;19.850;2023-07-22T05:30:31;14.5;;;6.6;;
51194;SDS011;37259;49.972;19.850;2023-07-22T05:31:28;14.5;;;6.6;;
51194;SDS011;37259;49.972;19.850;2023-07-22T05:32:28;14.5;;;6.6;;
51194;SDS011;37259;49.972;19.850;2023-07-22T05:33:28;14.5;;;6.6;;
51194;SDS011;37259;49.972;19.850;2023-07-22T05:34:28;14.5;;;6.6;;
51194;SDS011;37259;49.972;19.850;2023-07-22T05:35:28;14.5;;;6.6;;
51194;SDS011;37259;49.972;19.850;2023-07-22T05:36:28;14.5;;;6.6;;
51194;SDS011;37259;49.972;19.850;2023-07-22T05:37:28;14.5;;;6.6;;
51194;SDS011;37259;49.972;19.850;2023-07-22T05:38:28;14.5;;;6.6;;
51194;SDS011;37259;49.972;19.850;2023-07-22T05:39:28;14.5;;;6.6;;
51194;SDS011;37259;49.972;19.850;2023-07-22T05:40:28;14.5;;;6.6;;
51194;SDS011;37259;49.972;19.850;2023-07-22T05:41:28;14.5;;;6.6;;
51194;SDS011;37259;49.972;19.850;2023-07-22T05:42:28;14.5;;;6.6;;
51194;SDS011;37259;49.972;19.850;2023-07-22T05:43:28;14.5;;;6.6;;
51194;SDS011;37259;49.972;19.850;2023-07-22T05:44:28;14.5;;;6.6;;
51194;SDS011;37259;49.972;19.850;2023-07-22T05:45:32;14.5;;;6.6;;
51194;SDS011;37259;49.972;19.850;2023-07-22T05:46:30;14.5;;;6.6;;
51194;SDS011;37259;49.972;19.850;2023-07-22T05:47:28;10;;;6.7;;
51194;SDS011;37259;49.972;19.850;2023-07-22T05:48:28;10;;;6.7;;
51194;SDS011;37259;49.972;19.850;2023-07-22T05:49:28;10;;;6.7;;
51194;SDS011;37259;49.972;19.850;2023-07-22T05:50:28;10;;;6.7;;
51194;SDS011;37259;49.972;19.850;2023-07-22T05:51:28;10;;;6.7;;
51194;SDS011;37259;49.972;19.850;2023-07-22T05:52:28;10;;;6.7;;
51194;SDS011;37259;49.972;19.850;2023-07-22T05:53:28;10;;;6.7;;
51194;SDS011;37259;49.972;19.850;2023-07-22T05:54:28;10;;;6.7;;
51194;SDS011;37259;49.972;19.850;2023-07-22T05:55:28;10;;;6.7;;
51194;SDS011;37259;49.972;19.850;2023-07-22T05:56:28;10;;;6.7;;
51194;SDS011;37259;49.972;19.850;2023-07-22T05:57:28;10;;;6.7;;
51194;SDS011;37259;49.972;19.850;2023-07-22T05:58:28;10;;;6.7;;
51194;SDS011;37259;49.972;19.850;2023-07-22T05:59:28;10;;;6.7;;
51194;SDS011;37259;49.972;19.850;2023-07-22T06:00:29;10;;;6.7;;
51194;SDS011;37259;49.972;19.850;2023-07-22T06:01:28;10;;;6.7;;
51194;SDS011;37259;49.972;19.850;2023-07-22T06:02:28;10;;;6.7;;
51194;SDS011;37259;49.972;19.850;2023-07-22T06:03:28;10;;;6.7;;
51194;SDS011;37259;49.972;19.850;2023-07-22T06:04:28;10;;;6.7;;
51194;SDS011;37259;49.972;19.850;2023-07-22T06:05:28;10;;;6.7;;
51194;SDS011;37259;49.972;19.850;2023-07-22T06:06:28;10;;;6.7;;
51194;SDS011;37259;49.972;19.850;2023-07-22T06:07:28;10;;;6.7;;
51194;SDS011;37259;49.972;19.850;2023-07-22T06:08:28;10;;;6.7;;
51194;SDS011;37259;49.972;19.850;2023-07-22T06:09:28;10;;;6.7;;